Current | Forecast
Updated: 4:56 PM JST on May 21, 2018
Observed at Yokota AB, Japan
Temperature 77°F
Humidity 25%
Dew Point 38°F
Wind SSE at 7 mph
Pressure 30.12 in (Steady)
Conditions Clear
Visibility 10.0 miles
UV 2 out of 16
Clouds Clear (CLR) : -
Yesterday's Maximum 69°F
Yesterday's Minimum 60°F approx.
Yesterday's Cooling Degree Days N/A approx.
Sunrise4:33 AM JST
Sunset6:45 PM JST
Moon Rise10:10 AM JST
Moon Set
Moon PhaseMoon Phase
Waxing Crescent
Raw METARMETAR RJTY 210756Z AUTO 15006KT 10SM CLR 25/04 A3011 RMK AO2 SLP197 T02500036 FZRANO $


Monday
. High: 75° F.
Tuesday
. High: 77° F.
Wednesday
. High: 68° F.
Thursday
. High: 71° F.
Friday
. High: 75° F.
Saturday
. High: 75° F.
Sunday
. High: 73° F.
Monday
. High: 71° F.

Units: English | Metric

Find the Weather for any City, State or Zipcode, or Country:

U.S. State List | Severe Weather | Tropical Storms | Ski Conditions
United States | Canada | Central America | South America | Asia | Europe | Australia | Africa | Islands

Weather Underground

© Copyright 2018
The Weather Company, LLC